Time;durP1;ratioP1;P1;durP2;ratioP2;P2;SDS_P1;SDS_P2;PMS_P1;PMS_P2;Temp;Humidity;BMP_temperature;BMP_pressure;BME280_temperature;BME280_humidity;BME280_pressure;Samples;Min_cycle;Max_cycle;Signal;HPM_P1;HPM_P2
2024/04/12 00:02:11;;;;;;;57.83;26.40;;;14.70;99.90;;;;;;807582;176;26445;-80
2024/04/12 00:04:36;;;;;;;48.10;22.70;;;14.70;99.90;;;;;;802960;177;26424;-80
2024/04/12 00:07:13;;;;;;;14.23;5.20;;;14.70;99.90;;;;;;802463;177;26465;-80
2024/04/12 00:09:30;;;;;;;25.00;12.03;;;14.70;99.90;;;;;;797986;177;26468;-78
2024/04/12 00:12:00;;;;;;;11.53;4.33;;;14.70;99.90;;;;;;796469;176;26464;-79
2024/04/12 00:14:23;;;;;;;18.40;8.10;;;14.70;99.90;;;;;;788947;180;26461;-79
2024/04/12 00:16:52;;;;;;;14.27;6.43;;;14.70;99.90;;;;;;785975;181;26496;-78
2024/04/12 00:19:19;;;;;;;11.43;5.17;;;14.70;99.90;;;;;;805042;176;26427;-78
2024/04/12 00:21:46;;;;;;;13.23;4.00;;;14.70;99.90;;;;;;798867;177;26444;-79
2024/04/12 00:24:13;;;;;;;9.77;4.37;;;14.70;99.90;;;;;;794134;180;26424;-78
2024/04/12 00:26:43;;;;;;;47.60;24.60;;;14.70;99.90;;;;;;803293;177;26483;-79
2024/04/12 00:29:10;;;;;;;28.83;13.23;;;14.70;99.90;;;;;;804946;177;26444;-80
2024/04/12 00:31:42;;;;;;;65.03;26.70;;;14.70;99.90;;;;;;785754;177;27146;-78
2024/04/12 00:34:04;;;;;;;31.43;15.40;;;14.70;99.90;;;;;;797307;178;26437;-81
2024/04/12 00:36:30;;;;;;;23.67;13.17;;;14.80;99.90;;;;;;802010;178;26439;-79
2024/04/12 00:38:55;;;;;;;7.83;3.40;;;14.80;99.90;;;;;;798790;177;26449;-79
2024/04/12 00:41:24;;;;;;;13.70;5.07;;;14.80;99.90;;;;;;789165;177;27248;-78
2024/04/12 00:43:49;;;;;;;11.13;4.77;;;14.80;99.90;;;;;;799730;177;26438;-79
2024/04/12 00:46:17;;;;;;;9.93;5.33;;;14.90;99.90;;;;;;799650;177;26455;-79
2024/04/12 00:48:42;;;;;;;17.00;10.40;;;14.90;99.90;;;;;;789503;176;26500;-79
2024/04/12 00:51:09;;;;;;;20.17;11.67;;;14.90;99.90;;;;;;787276;177;26505;-78
2024/04/12 00:53:38;;;;;;;15.23;8.20;;;14.90;99.90;;;;;;789691;176;26468;-78
2024/04/12 00:56:03;;;;;;;9.97;5.60;;;14.80;99.90;;;;;;803897;177;26438;-79
2024/04/12 00:58:32;;;;;;;11.13;3.73;;;14.90;99.90;;;;;;786648;177;26462;-80
2024/04/12 01:01:07;;;;;;;7.87;4.20;;;14.90;99.90;;;;;;801818;177;26508;-79
2024/04/12 01:03:24;;;;;;;8.67;3.93;;;14.90;99.90;;;;;;784384;180;26552;-79
2024/04/12 01:05:50;;;;;;;10.03;4.83;;;14.90;99.90;;;;;;805025;176;26438;-80
2024/04/12 01:08:17;;;;;;;7.37;4.10;;;14.90;99.90;;;;;;801135;177;26596;-79
2024/04/12 01:10:44;;;;;;;7.57;4.40;;;14.90;99.90;;;;;;805319;176;26447;-79
2024/04/12 01:13:11;;;;;;;8.70;3.70;;;14.90;99.90;;;;;;789133;179;26462;-78
2024/04/12 01:15:37;;;;;;;8.60;3.80;;;14.90;99.90;;;;;;801330;176;26447;-80
2024/04/12 01:18:04;;;;;;;9.20;3.90;;;14.90;99.90;;;;;;807795;174;26449;-79
2024/04/12 01:20:34;;;;;;;7.60;3.40;;;15.00;99.90;;;;;;802332;178;26456;-79
2024/04/12 01:23:00;;;;;;;10.77;3.97;;;15.00;99.90;;;;;;808071;177;26433;-78
2024/04/12 01:25:28;;;;;;;23.80;10.63;;;15.00;99.90;;;;;;787151;180;26461;-79
2024/04/12 01:27:55;;;;;;;154.40;63.30;;;15.00;99.90;;;;;;799787;178;26541;-78
2024/04/12 01:30:21;;;;;;;112.23;43.03;;;15.00;99.90;;;;;;799311;177;26503;-80
2024/04/12 01:32:50;;;;;;;45.40;20.90;;;15.10;99.90;;;;;;804992;177;26427;-78
2024/04/12 01:35:15;;;;;;;13.83;7.80;;;15.10;99.90;;;;;;803233;177;26405;-78
2024/04/12 01:37:43;;;;;;;44.13;22.43;;;15.10;99.90;;;;;;801646;177;26447;-79
2024/04/12 01:40:12;;;;;;;16.93;10.03;;;15.10;99.90;;;;;;797007;178;26493;-79
2024/04/12 01:42:37;;;;;;;40.97;19.27;;;15.10;99.90;;;;;;807472;177;26430;-79
2024/04/12 01:47:34;;;;;;;24.30;12.60;;;15.10;99.90;;;;;;797904;177;26447;-78
2024/04/12 01:50:02;;;;;;;27.60;14.27;;;15.10;99.90;;;;;;802708;175;26452;-80
2024/04/12 01:52:28;;;;;;;45.57;22.10;;;15.10;99.90;;;;;;803414;173;26448;-78
2024/04/12 01:57:28;;;;;;;30.43;13.07;;;15.10;99.90;;;;;;806672;177;26444;-79
2024/04/12 01:59:54;;;;;;;48.97;24.00;;;15.10;99.90;;;;;;802563;177;26444;-79
2024/04/12 02:02:21;;;;;;;25.33;10.87;;;15.10;99.90;;;;;;803898;177;26464;-78
2024/04/12 02:04:51;;;;;;;98.73;43.77;;;15.10;99.90;;;;;;801792;176;26971;-80
2024/04/12 02:07:14;;;;;;;30.80;15.43;;;15.10;99.90;;;;;;804419;176;26479;-77
2024/04/12 02:09:40;;;;;;;14.43;7.13;;;15.10;99.90;;;;;;805694;176;26451;-78
2024/04/12 02:12:07;;;;;;;12.27;5.17;;;15.20;99.90;;;;;;810458;176;27038;-78
2024/04/12 02:14:33;;;;;;;7.07;3.27;;;15.20;99.90;;;;;;804671;176;27005;-77
2024/04/12 02:17:02;;;;;;;7.23;3.97;;;15.20;99.90;;;;;;784156;180;26555;-78
2024/04/12 02:19:27;;;;;;;4.40;3.07;;;15.20;99.90;;;;;;800415;177;26447;-79
2024/04/12 02:21:53;;;;;;;8.40;5.53;;;15.20;99.90;;;;;;801013;177;26427;-78
2024/04/12 02:24:20;;;;;;;5.60;3.40;;;15.10;99.90;;;;;;806452;178;26449;-79
2024/04/12 02:26:47;;;;;;;9.37;3.47;;;15.10;99.90;;;;;;803516;177;26486;-79
2024/04/12 02:29:14;;;;;;;10.73;4.93;;;15.10;99.90;;;;;;802913;177;26441;-78
2024/04/12 02:31:41;;;;;;;6.50;4.00;;;15.10;99.90;;;;;;802844;177;26477;-78
2024/04/12 02:34:09;;;;;;;10.00;5.43;;;15.10;99.90;;;;;;800013;177;26452;-78
2024/04/12 02:36:34;;;;;;;51.87;24.90;;;15.10;99.90;;;;;;800039;177;26471;-79
2024/04/12 02:39:06;;;;;;;59.90;28.53;;;15.10;99.90;;;;;;807883;177;26976;-78
2024/04/12 02:41:37;;;;;;;43.73;19.80;;;15.10;99.90;;;;;;800656;178;26501;-79
2024/04/12 02:43:55;;;;;;;9.10;5.03;;;15.10;99.90;;;;;;801724;177;26440;-79
2024/04/12 02:46:20;;;;;;;7.60;3.87;;;15.00;99.90;;;;;;795636;178;26476;-78
2024/04/12 02:48:48;;;;;;;4.80;2.80;;;15.00;99.90;;;;;;803928;177;27009;-80
2024/04/12 02:51:17;;;;;;;6.13;2.83;;;15.00;99.90;;;;;;807410;177;26493;-80
2024/04/12 02:53:42;;;;;;;4.00;3.17;;;15.10;99.90;;;;;;804068;176;26444;-79
2024/04/12 02:56:10;;;;;;;4.70;3.03;;;15.00;99.90;;;;;;806780;177;26434;-79
2024/04/12 02:58:39;;;;;;;3.67;2.80;;;15.00;99.90;;;;;;799342;175;26438;-80
2024/04/12 03:01:07;;;;;;;5.97;3.20;;;15.00;99.90;;;;;;806356;174;26452;-80
2024/04/12 03:03:32;;;;;;;6.33;3.20;;;15.00;99.90;;;;;;807666;173;26460;-78
2024/04/12 03:05:58;;;;;;;5.63;3.17;;;15.00;99.90;;;;;;799028;174;26424;-79
2024/04/12 03:08:26;;;;;;;4.63;3.23;;;15.00;99.90;;;;;;802472;175;26583;-79
2024/04/12 03:10:52;;;;;;;6.90;3.27;;;15.00;99.90;;;;;;805094;175;26438;-79
2024/04/12 03:13:18;;;;;;;4.60;2.70;;;15.00;99.90;;;;;;800938;178;26592;-78
2024/04/12 03:15:45;;;;;;;5.53;3.43;;;15.00;99.90;;;;;;807024;176;26439;-79
2024/04/12 03:18:12;;;;;;;5.23;2.93;;;15.00;99.90;;;;;;807257;176;26416;-79
2024/04/12 03:20:39;;;;;;;7.90;3.37;;;15.00;99.90;;;;;;801063;176;26442;-78
2024/04/12 03:23:05;;;;;;;7.20;3.60;;;15.00;99.90;;;;;;799859;177;26447;-79
2024/04/12 03:25:32;;;;;;;8.07;3.27;;;14.90;99.90;;;;;;799171;178;26490;-77
2024/04/12 03:27:58;;;;;;;7.03;3.10;;;15.00;99.90;;;;;;805319;177;26463;-80
2024/04/12 03:30:25;;;;;;;6.00;3.20;;;15.00;99.90;;;;;;788270;181;26545;-79
2024/04/12 03:32:52;;;;;;;4.67;3.30;;;15.00;99.90;;;;;;800079;177;27655;-79
2024/04/12 03:35:20;;;;;;;4.90;3.60;;;15.00;99.90;;;;;;801419;177;26443;-80
2024/04/12 03:38:24;;;;;;;7.10;4.07;;;14.90;99.90;;;;;;793181;177;26441;-78
2024/04/12 03:40:17;;;;;;;5.17;3.37;;;14.90;99.90;;;;;;788206;181;27018;-78
2024/04/12 03:42:43;;;;;;;6.20;3.93;;;14.90;99.90;;;;;;795230;179;26436;-78
2024/04/12 03:45:13;;;;;;;5.00;3.20;;;14.90;99.90;;;;;;805974;175;26462;-80
2024/04/12 03:47:39;;;;;;;7.33;2.90;;;14.90;99.90;;;;;;802372;177;26447;-79
2024/04/12 03:50:13;;;;;;;6.80;3.40;;;15.00;99.90;;;;;;800787;177;26462;-78
2024/04/12 03:52:34;;;;;;;4.43;3.00;;;15.00;99.90;;;;;;800358;177;26435;-78
2024/04/12 03:55:09;;;;;;;5.13;2.97;;;15.00;99.90;;;;;;795870;178;26985;-78
2024/04/12 03:57:27;;;;;;;4.77;2.90;;;15.00;99.90;;;;;;802955;177;26479;-78
2024/04/12 03:59:57;;;;;;;7.30;3.17;;;15.00;99.90;;;;;;795942;177;26476;-78
2024/04/12 04:02:22;;;;;;;6.90;3.07;;;14.90;99.90;;;;;;796336;179;26463;-79
2024/04/12 04:04:49;;;;;;;6.13;3.27;;;14.90;99.90;;;;;;787789;180;26506;-79
2024/04/12 04:07:15;;;;;;;5.67;3.40;;;14.90;99.90;;;;;;804620;177;26464;-79
2024/04/12 04:09:42;;;;;;;4.90;3.13;;;15.00;99.90;;;;;;785124;181;26465;-79
2024/04/12 04:12:10;;;;;;;5.23;3.40;;;14.90;99.90;;;;;;805381;178;26464;-79
2024/04/12 04:14:36;;;;;;;8.40;3.57;;;14.90;99.90;;;;;;805514;178;26440;-78
2024/04/12 04:17:01;;;;;;;4.93;3.50;;;14.90;99.90;;;;;;795003;178;26463;-79
2024/04/12 04:19:31;;;;;;;5.40;3.13;;;14.90;99.90;;;;;;794541;177;26467;-79
2024/04/12 04:22:01;;;;;;;7.90;3.50;;;14.80;99.90;;;;;;782953;181;26453;-79
2024/04/12 04:24:28;;;;;;;6.47;3.57;;;14.90;99.90;;;;;;801344;177;26496;-79
2024/04/12 04:26:54;;;;;;;6.87;3.60;;;14.80;99.90;;;;;;798780;177;26468;-79
2024/04/12 04:29:21;;;;;;;6.30;3.60;;;14.80;99.90;;;;;;785537;181;26497;-78
2024/04/12 04:31:49;;;;;;;6.10;3.73;;;14.70;99.90;;;;;;797280;178;27027;-78
2024/04/12 04:34:15;;;;;;;8.13;3.73;;;14.70;99.90;;;;;;793665;177;26431;-78
2024/04/12 04:36:41;;;;;;;5.03;3.80;;;14.70;99.90;;;;;;793311;180;26462;-79
2024/04/12 04:39:08;;;;;;;8.93;4.10;;;14.70;99.90;;;;;;787211;181;26480;-79
2024/04/12 04:41:34;;;;;;;5.80;3.37;;;14.70;99.90;;;;;;808907;175;26448;-82
2024/04/12 04:44:01;;;;;;;7.50;3.80;;;14.70;99.90;;;;;;799811;177;26440;-79
2024/04/12 04:46:28;;;;;;;11.73;4.00;;;14.70;99.90;;;;;;800463;178;27024;-77
2024/04/12 04:48:54;;;;;;;6.40;3.63;;;14.70;99.90;;;;;;784631;181;26478;-79
2024/04/12 04:51:22;;;;;;;7.80;3.93;;;14.70;99.90;;;;;;795756;178;26604;-80
2024/04/12 04:53:52;;;;;;;9.50;4.17;;;14.60;99.90;;;;;;795351;180;26424;-79
2024/04/12 04:56:24;;;;;;;6.80;3.93;;;14.60;99.90;;;;;;788702;180;26502;-77
2024/04/12 04:58:41;;;;;;;9.03;4.30;;;14.60;99.90;;;;;;799318;177;26878;-77
2024/04/12 05:01:12;;;;;;;7.23;3.97;;;14.70;99.90;;;;;;799898;177;27686;-76
2024/04/12 05:03:40;;;;;;;5.67;3.90;;;14.70;99.90;;;;;;783965;180;26528;-77
2024/04/12 05:06:07;;;;;;;7.73;4.30;;;14.70;99.90;;;;;;794906;176;26540;-76
2024/04/12 05:08:35;;;;;;;10.83;4.10;;;14.70;99.90;;;;;;816999;172;26502;-74
2024/04/12 05:11:00;;;;;;;7.77;4.00;;;14.80;99.90;;;;;;827278;171;26473;-76
2024/04/12 05:13:30;;;;;;;7.87;4.07;;;14.80;99.90;;;;;;811967;176;26511;-75
2024/04/12 05:15:53;;;;;;;8.53;4.40;;;14.70;99.90;;;;;;813980;173;26424;-76
2024/04/12 05:18:19;;;;;;;6.87;4.37;;;14.70;99.90;;;;;;805780;176;26673;-80
2024/04/12 05:20:47;;;;;;;7.30;4.10;;;14.70;99.90;;;;;;836384;169;26488;-80
2024/04/12 05:23:13;;;;;;;9.33;4.33;;;14.70;99.90;;;;;;814444;173;26495;-79
2024/04/12 05:25:40;;;;;;;9.60;4.70;;;14.70;99.90;;;;;;839366;169;26403;-80
2024/04/12 05:28:08;;;;;;;6.70;4.57;;;14.70;99.90;;;;;;807360;176;26461;-80
2024/04/12 05:30:36;;;;;;;10.50;5.17;;;14.60;99.90;;;;;;836737;169;26463;-79
2024/04/12 05:33:02;;;;;;;7.53;5.03;;;14.60;99.90;;;;;;803723;176;26463;-79
2024/04/12 05:35:30;;;;;;;11.27;4.87;;;14.60;99.90;;;;;;806249;176;27433;-77
2024/04/12 05:37:54;;;;;;;12.30;5.37;;;14.60;99.90;;;;;;805613;176;26445;-78
2024/04/12 05:40:25;;;;;;;11.17;5.80;;;14.60;99.90;;;;;;821280;171;27047;-77
2024/04/12 05:42:48;;;;;;;13.37;6.47;;;14.50;99.90;;;;;;821134;172;26417;-76
2024/04/12 05:45:19;;;;;;;15.93;6.53;;;14.50;99.90;;;;;;822871;172;26526;-78
2024/04/12 05:47:41;;;;;;;12.10;6.87;;;14.50;99.90;;;;;;807491;176;26458;-78
2024/04/12 05:50:12;;;;;;;13.10;6.67;;;14.40;99.90;;;;;;821742;172;26491;-78
2024/04/12 05:52:35;;;;;;;12.73;6.17;;;14.40;99.90;;;;;;821535;172;26980;-79
2024/04/12 05:55:10;;;;;;;12.87;5.77;;;14.40;99.90;;;;;;820723;172;26520;-79
2024/04/12 05:57:32;;;;;;;8.00;5.87;;;14.40;99.90;;;;;;819572;172;27002;-79
2024/04/12 05:59:56;;;;;;;8.83;5.50;;;14.50;99.90;;;;;;822132;172;26407;-80
2024/04/12 06:02:25;;;;;;;12.07;6.40;;;14.60;99.90;;;;;;824281;170;26410;-80
2024/04/12 06:04:48;;;;;;;14.27;6.70;;;14.60;99.90;;;;;;810124;172;26425;-79
2024/04/12 06:07:14;;;;;;;12.70;6.43;;;14.70;99.90;;;;;;823033;169;26436;-79
2024/04/12 06:09:41;;;;;;;11.07;6.97;;;14.70;99.90;;;;;;821737;172;26419;-79
2024/04/12 06:12:08;;;;;;;11.50;7.70;;;14.70;99.90;;;;;;820253;172;27132;-78
2024/04/12 06:14:42;;;;;;;16.23;8.27;;;14.60;99.90;;;;;;821526;172;26558;-80
2024/04/12 06:17:09;;;;;;;22.83;13.17;;;14.50;99.90;;;;;;809112;176;27363;-79
2024/04/12 06:19:37;;;;;;;20.70;12.40;;;14.50;99.90;;;;;;809525;176;26954;-78
2024/04/12 06:22:03;;;;;;;16.50;8.97;;;14.50;99.90;;;;;;819441;173;26396;-77
2024/04/12 06:24:30;;;;;;;13.47;8.10;;;14.60;99.90;;;;;;816812;172;26424;-77
2024/04/12 06:26:57;;;;;;;10.37;6.87;;;14.60;99.90;;;;;;809284;176;26434;-77
2024/04/12 06:29:26;;;;;;;13.50;7.83;;;14.60;99.90;;;;;;830266;173;26395;-78
2024/04/12 06:31:53;;;;;;;13.83;7.80;;;14.60;99.90;;;;;;826458;173;26420;-78
2024/04/12 06:34:18;;;;;;;13.03;7.33;;;14.70;99.90;;;;;;819313;173;26997;-78
2024/04/12 06:36:45;;;;;;;15.53;9.20;;;14.70;99.90;;;;;;818697;172;26409;-78
2024/04/12 06:39:11;;;;;;;15.70;8.60;;;14.60;99.90;;;;;;837875;169;26987;-77
2024/04/12 06:41:38;;;;;;;17.37;9.57;;;14.60;99.90;;;;;;814698;174;26422;-78
2024/04/12 06:44:05;;;;;;;18.53;9.37;;;14.60;99.90;;;;;;804851;175;27125;-78
2024/04/12 06:46:32;;;;;;;20.07;10.33;;;14.70;99.90;;;;;;839293;169;26950;-77
2024/04/12 06:49:07;;;;;;;18.60;10.10;;;14.70;99.90;;;;;;822427;173;26673;-77
2024/04/12 06:51:27;;;;;;;17.77;9.63;;;14.80;99.90;;;;;;817897;172;26960;-78
2024/04/12 06:53:54;;;;;;;12.80;7.37;;;14.80;99.90;;;;;;821605;173;26425;-78
2024/04/12 06:56:22;;;;;;;11.50;6.20;;;14.70;99.90;;;;;;839425;169;26945;-82
2024/04/12 06:58:47;;;;;;;12.47;6.37;;;14.70;99.90;;;;;;846435;169;26406;-78
2024/04/12 07:01:15;;;;;;;16.03;6.20;;;14.80;99.90;;;;;;806545;176;26961;-79
2024/04/12 07:03:46;;;;;;;12.87;6.13;;;14.80;99.90;;;;;;827885;172;26405;-78
2024/04/12 07:06:16;;;;;;;10.13;5.50;;;14.80;99.90;;;;;;816275;175;26413;-78
2024/04/12 07:08:56;;;;;;;8.67;5.13;;;14.80;99.90;;;;;;839730;170;26412;-76
2024/04/12 07:11:24;;;;;;;7.17;4.77;;;14.90;99.90;;;;;;811011;175;26427;-79
2024/04/12 07:13:50;;;;;;;11.40;5.00;;;14.90;99.90;;;;;;840132;169;26550;-77
2024/04/12 07:16:18;;;;;;;10.20;5.23;;;14.90;99.90;;;;;;846876;168;26387;-79
2024/04/12 07:18:43;;;;;;;8.30;5.53;;;14.90;99.90;;;;;;806933;175;26639;-80
2024/04/12 07:21:22;;;;;;;9.63;5.83;;;15.00;99.90;;;;;;824751;173;26428;-79
2024/04/12 07:23:49;;;;;;;11.53;5.77;;;15.00;99.90;;;;;;822531;173;27033;-79
2024/04/12 07:26:24;;;;;;;10.00;4.70;;;15.00;99.90;;;;;;835516;169;26412;-79
2024/04/12 07:28:41;;;;;;;13.77;5.47;;;15.10;99.90;;;;;;823747;173;26438;-79
2024/04/12 07:31:09;;;;;;;9.40;5.00;;;15.20;99.90;;;;;;825943;172;26404;-78
2024/04/12 07:33:35;;;;;;;9.73;5.33;;;15.20;99.90;;;;;;819263;173;26938;-78
2024/04/12 07:36:10;;;;;;;14.40;6.30;;;15.20;99.90;;;;;;824530;172;26439;-79
2024/04/12 07:38:29;;;;;;;8.43;5.73;;;15.30;99.90;;;;;;821902;172;26972;-78
2024/04/12 07:40:54;;;;;;;13.73;5.70;;;15.30;99.90;;;;;;823730;172;26445;-77
2024/04/12 07:43:23;;;;;;;10.47;5.17;;;15.30;99.90;;;;;;820865;173;26463;-78
2024/04/12 07:45:48;;;;;;;10.77;5.40;;;15.40;99.90;;;;;;826306;173;26422;-78
2024/04/12 07:48:23;;;;;;;10.80;4.97;;;15.60;99.90;;;;;;816492;172;26435;-78
2024/04/12 07:50:53;;;;;;;10.73;4.90;;;15.50;99.90;;;;;;810258;176;26482;-78
2024/04/12 07:53:25;;;;;;;12.07;5.00;;;15.60;99.90;;;;;;824046;173;26423;-78
2024/04/12 07:58:27;;;;;;;7.63;5.03;;;15.60;99.90;;;;;;825455;172;27060;-78
2024/04/12 08:00:53;;;;;;;8.87;4.90;;;15.60;99.90;;;;;;824565;172;26435;-76
2024/04/12 08:03:17;;;;;;;10.90;4.63;;;15.70;99.90;;;;;;822979;171;26419;-78
2024/04/12 08:08:27;;;;;;;10.57;5.53;;;15.80;99.90;;;;;;816004;173;26425;-79
2024/04/12 08:10:44;;;;;;;7.73;4.90;;;15.90;99.90;;;;;;808474;177;26409;-78
2024/04/12 08:13:10;;;;;;;10.43;5.03;;;16.00;99.90;;;;;;818925;174;26437;-80
2024/04/12 08:15:41;;;;;;;13.93;5.43;;;16.20;99.90;;;;;;831363;172;26407;-76
2024/04/12 08:18:04;;;;;;;11.40;4.90;;;16.40;99.90;;;;;;825393;172;26433;-79
2024/04/12 08:20:39;;;;;;;9.43;4.40;;;16.50;99.90;;;;;;808650;175;27016;-78
2024/04/12 08:22:58;;;;;;;9.60;4.57;;;16.70;99.90;;;;;;819299;173;26614;-77
2024/04/12 08:25:26;;;;;;;9.20;4.50;;;16.60;99.90;;;;;;822082;173;26420;-79
2024/04/12 08:27:54;;;;;;;8.70;4.70;;;16.40;99.90;;;;;;821725;172;26582;-78
2024/04/12 08:30:19;;;;;;;9.73;4.17;;;16.50;99.90;;;;;;821654;173;26968;-79
2024/04/12 08:32:48;;;;;;;12.23;4.70;;;16.80;99.90;;;;;;821029;172;26431;-77
2024/04/12 08:35:12;;;;;;;7.30;4.40;;;16.90;99.90;;;;;;822630;174;26422;-78
2024/04/12 08:37:37;;;;;;;8.70;4.90;;;16.80;99.90;;;;;;827063;173;26455;-79
2024/04/12 08:40:09;;;;;;;6.17;4.20;;;16.70;99.90;;;;;;817980;172;26420;-80
2024/04/12 08:42:36;;;;;;;12.23;4.63;;;16.70;99.90;;;;;;829507;172;26403;-77
2024/04/12 08:45:18;;;;;;;10.53;4.77;;;16.60;99.90;;;;;;817020;173;26549;-78
2024/04/12 08:48:15;;;;;;;7.40;4.17;;;16.50;99.90;;;;;;817817;172;26415;-79
2024/04/12 08:50:31;;;;;;;8.10;4.30;;;16.50;99.90;;;;;;802079;177;26411;-78
2024/04/12 08:52:53;;;;;;;8.73;5.10;;;16.70;99.90;;;;;;807471;177;27006;-78
2024/04/12 08:55:23;;;;;;;8.53;4.43;;;16.90;99.90;;;;;;828276;173;26396;-78
2024/04/12 08:57:52;;;;;;;9.00;5.63;;;17.00;99.90;;;;;;816651;174;26416;-78
2024/04/12 09:00:17;;;;;;;12.13;6.03;;;17.00;99.90;;;;;;820248;173;26423;-78
2024/04/12 09:02:48;;;;;;;13.60;5.73;;;17.00;99.90;;;;;;823440;173;26519;-78
2024/04/12 09:05:13;;;;;;;10.47;5.40;;;17.10;99.90;;;;;;806449;176;26436;-77
2024/04/12 09:07:42;;;;;;;12.77;7.17;;;17.00;99.90;;;;;;811401;176;26438;-79
2024/04/12 09:10:06;;;;;;;10.57;5.63;;;16.70;99.90;;;;;;819908;172;26412;-77
2024/04/12 09:12:29;;;;;;;11.07;6.90;;;16.70;99.90;;;;;;821057;173;26542;-77
2024/04/12 09:14:56;;;;;;;8.37;5.90;;;17.00;99.90;;;;;;821080;172;26453;-76
2024/04/12 09:17:28;;;;;;;13.73;7.03;;;17.00;99.90;;;;;;808412;176;26492;-77
2024/04/12 09:19:52;;;;;;;10.53;6.27;;;17.30;99.90;;;;;;809907;176;26469;-76
2024/04/12 09:22:18;;;;;;;10.60;6.47;;;17.50;99.90;;;;;;809953;177;26733;-77
2024/04/12 09:24:48;;;;;;;16.37;10.23;;;17.40;99.90;;;;;;821701;173;26409;-77
2024/04/12 09:27:15;;;;;;;10.97;6.47;;;17.20;99.90;;;;;;824389;172;26419;-77
2024/04/12 09:29:44;;;;;;;15.90;9.13;;;17.10;99.90;;;;;;822449;172;26406;-77
2024/04/12 09:34:46;;;;;;;10.03;5.97;;;17.30;99.90;;;;;;826478;173;26401;-76
2024/04/12 09:37:45;;;;;;;9.10;6.07;;;17.20;99.90;;;;;;828123;172;26453;-77
2024/04/12 09:40:04;;;;;;;9.50;6.63;;;17.40;99.90;;;;;;820621;170;26431;-77
2024/04/12 09:42:28;;;;;;;12.47;6.43;;;17.70;99.90;;;;;;831811;172;26414;-77
2024/04/12 09:44:59;;;;;;;9.40;5.40;;;17.80;99.90;;;;;;813514;173;26392;-77
2024/04/12 10:38:23;;;;;;;10.50;6.40;;;19.20;99.90;;;;;;805395;177;26451;-78
2024/04/12 10:40:49;;;;;;;15.27;6.00;;;19.20;99.90;;;;;;817942;173;26433;-78
2024/04/12 10:43:15;;;;;;;6.77;4.60;;;19.30;99.90;;;;;;823925;172;26413;-78
2024/04/12 10:45:48;;;;;;;11.63;5.27;;;19.00;99.90;;;;;;829495;172;26594;-78
2024/04/12 10:48:09;;;;;;;12.43;6.47;;;18.60;99.90;;;;;;821815;172;26440;-85
2024/04/12 10:50:36;;;;;;;13.23;6.43;;;18.80;99.90;;;;;;811111;176;27032;-85
2024/04/12 10:53:21;;;;;;;10.83;5.10;;;19.00;99.90;;;;;;811670;173;26382;-86
2024/04/12 10:56:12;;;;;;;;;;;;;;;;;;;;;
2024/04/12 10:58:59;;;;;;;21.37;13.07;;;18.80;99.90;;;;;;817684;173;26421;-86
2024/04/12 11:01:50;;;;;;;93.00;51.13;;;18.90;99.90;;;;;;829485;172;26403;-84
2024/04/12 11:04:18;;;;;;;22.77;13.40;;;19.10;99.90;;;;;;838959;169;27036;-78
2024/04/12 11:06:45;;;;;;;50.90;29.40;;;19.30;99.90;;;;;;828081;172;26566;-78
2024/04/12 11:09:15;;;;;;;27.87;14.27;;;19.40;99.90;;;;;;801218;172;26522;-78
2024/04/12 11:11:43;;;;;;;29.10;16.67;;;19.30;99.90;;;;;;800881;177;28960;-80
2024/04/12 11:14:15;;;;;;;17.10;9.77;;;19.50;99.90;;;;;;796809;178;26440;-79
2024/04/12 11:32:19;;;;;;;21.70;12.67;;;19.20;99.90;;;;;;824353;173;26412;-79
2024/04/12 11:34:45;;;;;;;50.33;25.77;;;19.10;99.90;;;;;;823677;172;26372;-79
2024/04/12 11:37:13;;;;;;;36.87;21.10;;;19.10;99.90;;;;;;826132;172;26380;-79
2024/04/12 11:39:45;;;;;;;12.90;6.87;;;19.00;99.90;;;;;;827526;170;26428;-79
2024/04/12 11:42:14;;;;;;;10.13;5.30;;;18.90;99.90;;;;;;826353;170;26477;-79
2024/04/12 11:44:47;;;;;;;13.37;6.77;;;19.00;99.90;;;;;;826045;173;26379;-79
2024/04/12 11:49:57;;;;;;;16.07;8.47;;;19.00;99.90;;;;;;788658;172;26580;-83
2024/04/12 11:52:18;;;;;;;35.27;20.73;;;19.20;99.90;;;;;;803583;179;26389;-83
2024/04/12 11:54:51;;;;;;;37.93;21.73;;;19.20;99.90;;;;;;791823;179;26497;-82
2024/04/12 11:57:14;;;;;;;51.27;26.20;;;19.10;99.90;;;;;;786479;183;26576;-84
2024/04/12 11:59:43;;;;;;;30.37;16.43;;;19.40;99.90;;;;;;786668;179;26512;-82
2024/04/12 12:02:08;;;;;;;21.47;12.57;;;19.40;99.90;;;;;;786483;182;26507;-83
2024/04/12 12:04:35;;;;;;;25.73;13.53;;;19.50;99.90;;;;;;786825;180;26528;-83
2024/04/12 12:07:04;;;;;;;60.57;33.07;;;19.60;99.90;;;;;;786649;182;26485;-83
2024/04/12 12:09:31;;;;;;;39.53;22.13;;;19.70;99.90;;;;;;786604;183;26462;-83
2024/04/12 12:11:57;;;;;;;31.47;19.20;;;19.20;99.90;;;;;;786621;182;26713;-83
2024/04/12 12:14:25;;;;;;;24.77;15.27;;;19.10;99.90;;;;;;786225;180;26576;-84
2024/04/12 12:16:51;;;;;;;65.53;32.70;;;19.10;99.90;;;;;;785812;183;26486;-83
2024/04/12 12:19:19;;;;;;;18.60;10.03;;;18.90;99.90;;;;;;786352;183;26579;-83
2024/04/12 12:21:46;;;;;;;67.43;37.83;;;18.90;99.90;;;;;;786389;183;26478;-82
2024/04/12 12:24:14;;;;;;;91.47;49.27;;;19.00;99.90;;;;;;786372;180;26518;-83
2024/04/12 12:26:40;;;;;;;50.87;32.33;;;19.00;99.90;;;;;;786334;183;26476;-83
2024/04/12 12:29:06;;;;;;;113.33;65.07;;;19.00;99.90;;;;;;786086;179;27192;-83
2024/04/12 12:31:33;;;;;;;86.97;51.87;;;19.00;99.90;;;;;;786192;183;26494;-82
2024/04/12 12:34:00;;;;;;;80.67;44.77;;;19.00;99.90;;;;;;786407;180;26510;-83
2024/04/12 12:36:27;;;;;;;39.73;23.27;;;19.10;99.90;;;;;;786474;179;26504;-83
2024/04/12 12:38:55;;;;;;;53.30;30.80;;;19.00;99.90;;;;;;786297;183;26462;-84
2024/04/12 12:41:23;;;;;;;34.70;19.67;;;19.20;99.90;;;;;;786457;183;26499;-84
2024/04/12 12:43:49;;;;;;;14.47;8.23;;;19.40;99.90;;;;;;777908;183;26493;-82
2024/04/12 12:46:16;;;;;;;9.90;5.97;;;19.50;99.90;;;;;;773866;186;26450;-83
2024/04/12 12:48:43;;;;;;;14.90;7.80;;;19.70;99.90;;;;;;770716;185;26542;-84
2024/04/12 12:51:10;;;;;;;20.00;11.10;;;19.90;99.90;;;;;;785383;180;26652;-86
2024/04/12 12:53:40;;;;;;;7.97;5.20;;;20.10;99.90;;;;;;784859;181;26524;-86
2024/04/12 12:56:08;;;;;;;5.60;3.43;;;20.00;99.90;;;;;;802606;179;27064;-86
2024/04/12 12:58:34;;;;;;;19.30;10.97;;;20.10;99.90;;;;;;801627;179;26436;-84
2024/04/12 13:01:01;;;;;;;7.83;4.83;;;20.40;99.90;;;;;;801482;180;26461;-84
2024/04/12 13:03:30;;;;;;;4.43;3.00;;;20.90;99.90;;;;;;790077;182;26489;-84
2024/04/12 13:05:56;;;;;;;6.87;4.00;;;21.00;99.90;;;;;;801363;177;26461;-84
2024/04/12 13:08:25;;;;;;;14.27;7.70;;;21.00;99.90;;;;;;789138;182;26640;-83
2024/04/12 13:10:53;;;;;;;24.73;15.57;;;21.20;99.90;;;;;;800465;178;26455;-83
2024/04/12 13:13:21;;;;;;;33.53;20.80;;;21.30;99.90;;;;;;800410;180;27048;-83
2024/04/12 13:15:45;;;;;;;7.07;3.17;;;21.50;99.90;;;;;;800196;178;26678;-82
2024/04/12 13:18:12;;;;;;;10.13;4.90;;;22.00;99.00;;;;;;800702;180;26487;-83
2024/04/12 13:20:38;;;;;;;51.00;31.03;;;22.70;97.70;;;;;;800814;180;26617;-82
2024/04/12 13:23:05;;;;;;;75.27;40.30;;;23.30;95.30;;;;;;800762;179;26456;-82
2024/04/12 13:25:32;;;;;;;85.27;50.57;;;23.30;94.20;;;;;;800472;180;26448;-82
2024/04/12 13:27:59;;;;;;;33.67;19.83;;;23.20;95.00;;;;;;800449;180;26464;-81
2024/04/12 13:30:29;;;;;;;26.47;14.97;;;22.10;96.40;;;;;;800500;180;26594;-83
2024/04/12 13:32:58;;;;;;;28.07;15.83;;;21.90;97.10;;;;;;788487;181;26516;-83
2024/04/12 13:35:21;;;;;;;11.87;6.50;;;21.70;98.50;;;;;;799902;178;26991;-82
2024/04/12 13:37:48;;;;;;;54.43;33.67;;;21.20;98.60;;;;;;773824;186;26490;-85
2024/04/12 13:40:17;;;;;;;35.17;20.27;;;20.80;99.90;;;;;;803983;179;26443;-84
2024/04/12 13:42:42;;;;;;;36.47;24.67;;;20.70;99.90;;;;;;773697;182;26532;-83
2024/04/12 13:52:50;;;;;;;9.43;5.27;;;22.30;95.30;;;;;;801172;180;26455;-82
2024/04/12 13:55:20;;;;;;;42.87;26.20;;;22.20;96.70;;;;;;797470;180;26448;-83
2024/04/12 13:57:47;;;;;;;72.30;38.47;;;22.00;96.70;;;;;;796669;179;26490;-83
2024/04/12 14:00:28;;;;;;;90.50;54.57;;;21.80;97.30;;;;;;786123;181;26469;-83
2024/04/12 14:02:43;;;;;;;62.83;36.93;;;21.60;97.80;;;;;;786493;180;26564;-84
2024/04/12 14:05:17;;;;;;;48.83;27.90;;;21.60;98.10;;;;;;787105;182;26633;-83
2024/04/12 14:07:37;;;;;;;27.90;15.87;;;21.50;98.50;;;;;;785798;182;27017;-81
2024/04/12 14:10:06;;;;;;;12.67;7.60;;;21.40;98.20;;;;;;786074;183;26438;-83